sensor_id;sensor_type;location;lat;lon;timestamp;P1;P2;P0
60245;PMS5003;46107;53.356;-1.524;2023-04-03T00:02:19;8;7;
60245;PMS5003;46107;53.356;-1.524;2023-04-03T00:04:48;9;8;
60245;PMS5003;46107;53.356;-1.524;2023-04-03T00:07:15;5;5;
60245;PMS5003;46107;53.356;-1.524;2023-04-03T00:09:43;8;7;
60245;PMS5003;46107;53.356;-1.524;2023-04-03T00:12:11;7;7;
60245;PMS5003;46107;53.356;-1.524;2023-04-03T00:14:38;7;7;
60245;PMS5003;46107;53.356;-1.524;2023-04-03T00:17:05;7;7;
60245;PMS5003;46107;53.356;-1.524;2023-04-03T00:19:34;9;7;
60245;PMS5003;46107;53.356;-1.524;2023-04-03T00:22:01;6;6;
60245;PMS5003;46107;53.356;-1.524;2023-04-03T00:24:29;8;8;
60245;PMS5003;46107;53.356;-1.524;2023-04-03T00:26:56;12;7;
60245;PMS5003;46107;53.356;-1.524;2023-04-03T00:29:24;8;8;
60245;PMS5003;46107;53.356;-1.524;2023-04-03T00:31:52;8;7;
60245;PMS5003;46107;53.356;-1.524;2023-04-03T00:34:19;8;8;
60245;PMS5003;46107;53.356;-1.524;2023-04-03T00:36:47;8;7;
60245;PMS5003;46107;53.356;-1.524;2023-04-03T00:39:15;6;6;
60245;PMS5003;46107;53.356;-1.524;2023-04-03T00:41:42;8;6;
60245;PMS5003;46107;53.356;-1.524;2023-04-03T00:44:19;8;6;
60245;PMS5003;46107;53.356;-1.524;2023-04-03T00:46:48;9;8;
60245;PMS5003;46107;53.356;-1.524;2023-04-03T00:49:15;7;7;
60245;PMS5003;46107;53.356;-1.524;2023-04-03T00:51:43;10;9;
60245;PMS5003;46107;53.356;-1.524;2023-04-03T00:54:11;8;8;
60245;PMS5003;46107;53.356;-1.524;2023-04-03T00:56:38;9;7;
60245;PMS5003;46107;53.356;-1.524;2023-04-03T00:59:08;10;8;
60245;PMS5003;46107;53.356;-1.524;2023-04-03T01:01:40;6;6;
60245;PMS5003;46107;53.356;-1.524;2023-04-03T01:04:24;8;8;
60245;PMS5003;46107;53.356;-1.524;2023-04-03T01:06:55;7;7;
60245;PMS5003;46107;53.356;-1.524;2023-04-03T01:09:25;9;8;
60245;PMS5003;46107;53.356;-1.524;2023-04-03T01:11:53;10;8;
60245;PMS5003;46107;53.356;-1.524;2023-04-03T01:14:20;9;6;
60245;PMS5003;46107;53.356;-1.524;2023-04-03T01:16:52;10;9;
60245;PMS5003;46107;53.356;-1.524;2023-04-03T01:19:20;9;8;
60245;PMS5003;46107;53.356;-1.524;2023-04-03T01:22:10;6;6;
60245;PMS5003;46107;53.356;-1.524;2023-04-03T01:24:46;11;10;
60245;PMS5003;46107;53.356;-1.524;2023-04-03T01:27:13;10;9;
60245;PMS5003;46107;53.356;-1.524;2023-04-03T01:29:41;6;6;
60245;PMS5003;46107;53.356;-1.524;2023-04-03T01:32:09;10;8;
60245;PMS5003;46107;53.356;-1.524;2023-04-03T01:34:37;10;8;
60245;PMS5003;46107;53.356;-1.524;2023-04-03T01:37:04;9;6;
60245;PMS5003;46107;53.356;-1.524;2023-04-03T01:39:32;7;6;
60245;PMS5003;46107;53.356;-1.524;2023-04-03T01:42:00;6;6;
60245;PMS5003;46107;53.356;-1.524;2023-04-03T01:44:28;10;8;
60245;PMS5003;46107;53.356;-1.524;2023-04-03T01:46:55;9;7;
60245;PMS5003;46107;53.356;-1.524;2023-04-03T01:49:23;7;7;
60245;PMS5003;46107;53.356;-1.524;2023-04-03T01:51:51;9;6;
60245;PMS5003;46107;53.356;-1.524;2023-04-03T01:54:18;7;7;
60245;PMS5003;46107;53.356;-1.524;2023-04-03T01:56:45;6;6;
60245;PMS5003;46107;53.356;-1.524;2023-04-03T01:59:14;9;7;
60245;PMS5003;46107;53.356;-1.524;2023-04-03T02:01:42;10;7;
60245;PMS5003;46107;53.356;-1.524;2023-04-03T02:04:09;9;6;
60245;PMS5003;46107;53.356;-1.524;2023-04-03T02:06:38;7;7;
60245;PMS5003;46107;53.356;-1.524;2023-04-03T02:09:05;9;7;
60245;PMS5003;46107;53.356;-1.524;2023-04-03T02:11:33;5;4;
60245;PMS5003;46107;53.356;-1.524;2023-04-03T02:14:00;8;8;
60245;PMS5003;46107;53.356;-1.524;2023-04-03T02:16:28;6;6;
60245;PMS5003;46107;53.356;-1.524;2023-04-03T02:18:56;7;6;
60245;PMS5003;46107;53.356;-1.524;2023-04-03T02:21:24;11;8;
60245;PMS5003;46107;53.356;-1.524;2023-04-03T02:23:52;9;7;
60245;PMS5003;46107;53.356;-1.524;2023-04-03T02:26:20;8;7;
60245;PMS5003;46107;53.356;-1.524;2023-04-03T02:28:47;7;7;
60245;PMS5003;46107;53.356;-1.524;2023-04-03T02:31:15;7;6;
60245;PMS5003;46107;53.356;-1.524;2023-04-03T02:33:43;8;7;
60245;PMS5003;46107;53.356;-1.524;2023-04-03T02:36:11;7;7;
60245;PMS5003;46107;53.356;-1.524;2023-04-03T02:38:39;5;4;
60245;PMS5003;46107;53.356;-1.524;2023-04-03T02:41:08;3;3;
60245;PMS5003;46107;53.356;-1.524;2023-04-03T02:43:37;7;7;
60245;PMS5003;46107;53.356;-1.524;2023-04-03T02:46:05;7;7;
60245;PMS5003;46107;53.356;-1.524;2023-04-03T02:48:33;6;6;
60245;PMS5003;46107;53.356;-1.524;2023-04-03T02:51:00;7;6;
60245;PMS5003;46107;53.356;-1.524;2023-04-03T02:53:29;7;6;
60245;PMS5003;46107;53.356;-1.524;2023-04-03T02:55:56;6;5;
60245;PMS5003;46107;53.356;-1.524;2023-04-03T02:58:25;7;6;
60245;PMS5003;46107;53.356;-1.524;2023-04-03T03:00:53;4;4;
60245;PMS5003;46107;53.356;-1.524;2023-04-03T03:03:22;6;6;
60245;PMS5003;46107;53.356;-1.524;2023-04-03T03:05:50;7;5;
60245;PMS5003;46107;53.356;-1.524;2023-04-03T03:08:27;5;5;
60245;PMS5003;46107;53.356;-1.524;2023-04-03T03:10:54;6;5;
60245;PMS5003;46107;53.356;-1.524;2023-04-03T03:13:22;6;5;
60245;PMS5003;46107;53.356;-1.524;2023-04-03T03:15:50;7;6;
60245;PMS5003;46107;53.356;-1.524;2023-04-03T03:18:18;7;7;
60245;PMS5003;46107;53.356;-1.524;2023-04-03T03:20:47;6;6;
60245;PMS5003;46107;53.356;-1.524;2023-04-03T03:23:18;6;5;
60245;PMS5003;46107;53.356;-1.524;2023-04-03T03:25:46;7;6;
60245;PMS5003;46107;53.356;-1.524;2023-04-03T03:28:14;5;4;
60245;PMS5003;46107;53.356;-1.524;2023-04-03T03:30:42;8;5;
60245;PMS5003;46107;53.356;-1.524;2023-04-03T03:33:10;8;8;
60245;PMS5003;46107;53.356;-1.524;2023-04-03T03:35:37;9;8;
60245;PMS5003;46107;53.356;-1.524;2023-04-03T03:38:05;8;6;
60245;PMS5003;46107;53.356;-1.524;2023-04-03T03:40:32;7;7;
60245;PMS5003;46107;53.356;-1.524;2023-04-03T03:43:00;5;5;
60245;PMS5003;46107;53.356;-1.524;2023-04-03T03:45:27;7;7;
60245;PMS5003;46107;53.356;-1.524;2023-04-03T03:47:55;8;8;
60245;PMS5003;46107;53.356;-1.524;2023-04-03T03:50:22;10;8;
60245;PMS5003;46107;53.356;-1.524;2023-04-03T03:52:50;9;7;
60245;PMS5003;46107;53.356;-1.524;2023-04-03T03:55:17;12;7;
60245;PMS5003;46107;53.356;-1.524;2023-04-03T03:57:45;7;5;
60245;PMS5003;46107;53.356;-1.524;2023-04-03T04:00:13;7;7;
60245;PMS5003;46107;53.356;-1.524;2023-04-03T04:02:41;9;6;
60245;PMS5003;46107;53.356;-1.524;2023-04-03T04:05:09;8;5;
60245;PMS5003;46107;53.356;-1.524;2023-04-03T04:07:37;6;5;
60245;PMS5003;46107;53.356;-1.524;2023-04-03T04:10:05;9;7;
60245;PMS5003;46107;53.356;-1.524;2023-04-03T04:12:33;6;5;
60245;PMS5003;46107;53.356;-1.524;2023-04-03T04:15:00;6;6;
60245;PMS5003;46107;53.356;-1.524;2023-04-03T04:17:27;9;8;
60245;PMS5003;46107;53.356;-1.524;2023-04-03T04:19:55;10;7;
60245;PMS5003;46107;53.356;-1.524;2023-04-03T04:22:22;8;6;
60245;PMS5003;46107;53.356;-1.524;2023-04-03T04:24:50;8;5;
60245;PMS5003;46107;53.356;-1.524;2023-04-03T04:27:18;7;7;
60245;PMS5003;46107;53.356;-1.524;2023-04-03T04:29:45;8;6;
60245;PMS5003;46107;53.356;-1.524;2023-04-03T04:32:12;9;7;
60245;PMS5003;46107;53.356;-1.524;2023-04-03T04:34:40;5;5;
60245;PMS5003;46107;53.356;-1.524;2023-04-03T04:37:08;6;6;
60245;PMS5003;46107;53.356;-1.524;2023-04-03T04:39:36;5;5;
60245;PMS5003;46107;53.356;-1.524;2023-04-03T04:42:05;7;7;
60245;PMS5003;46107;53.356;-1.524;2023-04-03T04:44:32;11;9;
60245;PMS5003;46107;53.356;-1.524;2023-04-03T04:47:00;15;8;
60245;PMS5003;46107;53.356;-1.524;2023-04-03T04:49:27;12;8;
60245;PMS5003;46107;53.356;-1.524;2023-04-03T04:51:55;7;5;
60245;PMS5003;46107;53.356;-1.524;2023-04-03T04:54:22;5;5;
60245;PMS5003;46107;53.356;-1.524;2023-04-03T04:56:50;8;6;
60245;PMS5003;46107;53.356;-1.524;2023-04-03T04:59:18;6;6;
60245;PMS5003;46107;53.356;-1.524;2023-04-03T05:01:45;9;6;
60245;PMS5003;46107;53.356;-1.524;2023-04-03T05:04:13;6;6;
60245;PMS5003;46107;53.356;-1.524;2023-04-03T05:06:39;6;6;
60245;PMS5003;46107;53.356;-1.524;2023-04-03T05:09:07;6;6;
60245;PMS5003;46107;53.356;-1.524;2023-04-03T05:11:35;8;6;
60245;PMS5003;46107;53.356;-1.524;2023-04-03T05:14:03;6;5;
60245;PMS5003;46107;53.356;-1.524;2023-04-03T05:16:30;6;5;
60245;PMS5003;46107;53.356;-1.524;2023-04-03T05:18:57;8;7;
60245;PMS5003;46107;53.356;-1.524;2023-04-03T05:21:25;6;6;
60245;PMS5003;46107;53.356;-1.524;2023-04-03T05:23:53;8;8;
60245;PMS5003;46107;53.356;-1.524;2023-04-03T05:26:20;8;6;
60245;PMS5003;46107;53.356;-1.524;2023-04-03T05:28:48;6;5;
60245;PMS5003;46107;53.356;-1.524;2023-04-03T05:31:15;9;7;
60245;PMS5003;46107;53.356;-1.524;2023-04-03T05:33:42;8;8;
60245;PMS5003;46107;53.356;-1.524;2023-04-03T05:36:10;9;8;
60245;PMS5003;46107;53.356;-1.524;2023-04-03T05:38:38;8;6;
60245;PMS5003;46107;53.356;-1.524;2023-04-03T05:41:05;5;5;
60245;PMS5003;46107;53.356;-1.524;2023-04-03T05:43:33;6;6;
60245;PMS5003;46107;53.356;-1.524;2023-04-03T05:46:00;6;6;
60245;PMS5003;46107;53.356;-1.524;2023-04-03T05:48:29;8;7;
60245;PMS5003;46107;53.356;-1.524;2023-04-03T05:50:57;6;6;
60245;PMS5003;46107;53.356;-1.524;2023-04-03T05:53:27;9;8;
60245;PMS5003;46107;53.356;-1.524;2023-04-03T05:55:58;9;8;
60245;PMS5003;46107;53.356;-1.524;2023-04-03T05:58:25;8;7;
60245;PMS5003;46107;53.356;-1.524;2023-04-03T06:00:54;6;6;
60245;PMS5003;46107;53.356;-1.524;2023-04-03T06:03:22;12;9;
60245;PMS5003;46107;53.356;-1.524;2023-04-03T06:05:50;7;7;
60245;PMS5003;46107;53.356;-1.524;2023-04-03T06:08:17;10;8;
60245;PMS5003;46107;53.356;-1.524;2023-04-03T06:10:45;7;6;
60245;PMS5003;46107;53.356;-1.524;2023-04-03T06:13:13;8;7;
60245;PMS5003;46107;53.356;-1.524;2023-04-03T06:15:40;8;8;
60245;PMS5003;46107;53.356;-1.524;2023-04-03T06:18:08;10;10;
60245;PMS5003;46107;53.356;-1.524;2023-04-03T06:20:36;9;7;
60245;PMS5003;46107;53.356;-1.524;2023-04-03T06:23:03;6;6;
60245;PMS5003;46107;53.356;-1.524;2023-04-03T06:25:31;5;5;
60245;PMS5003;46107;53.356;-1.524;2023-04-03T06:27:59;5;5;
60245;PMS5003;46107;53.356;-1.524;2023-04-03T06:30:26;7;7;
60245;PMS5003;46107;53.356;-1.524;2023-04-03T06:32:54;7;7;
60245;PMS5003;46107;53.356;-1.524;2023-04-03T06:35:22;7;7;
60245;PMS5003;46107;53.356;-1.524;2023-04-03T06:37:49;11;9;
60245;PMS5003;46107;53.356;-1.524;2023-04-03T06:40:18;8;6;
60245;PMS5003;46107;53.356;-1.524;2023-04-03T06:42:47;9;7;
60245;PMS5003;46107;53.356;-1.524;2023-04-03T06:45:15;8;5;
60245;PMS5003;46107;53.356;-1.524;2023-04-03T06:47:43;6;6;
60245;PMS5003;46107;53.356;-1.524;2023-04-03T06:50:11;6;4;
60245;PMS5003;46107;53.356;-1.524;2023-04-03T06:52:39;6;5;
60245;PMS5003;46107;53.356;-1.524;2023-04-03T06:55:08;9;5;
60245;PMS5003;46107;53.356;-1.524;2023-04-03T06:57:36;5;5;
60245;PMS5003;46107;53.356;-1.524;2023-04-03T07:00:05;6;6;
60245;PMS5003;46107;53.356;-1.524;2023-04-03T07:02:33;7;6;
60245;PMS5003;46107;53.356;-1.524;2023-04-03T07:05:01;8;8;
60245;PMS5003;46107;53.356;-1.524;2023-04-03T07:07:29;7;7;
60245;PMS5003;46107;53.356;-1.524;2023-04-03T07:09:57;6;6;
60245;PMS5003;46107;53.356;-1.524;2023-04-03T07:12:25;8;6;
60245;PMS5003;46107;53.356;-1.524;2023-04-03T07:14:53;12;9;
60245;PMS5003;46107;53.356;-1.524;2023-04-03T07:17:21;6;5;
60245;PMS5003;46107;53.356;-1.524;2023-04-03T07:19:50;6;6;
60245;PMS5003;46107;53.356;-1.524;2023-04-03T07:22:18;6;6;
60245;PMS5003;46107;53.356;-1.524;2023-04-03T07:24:46;6;6;
60245;PMS5003;46107;53.356;-1.524;2023-04-03T07:27:13;9;7;
60245;PMS5003;46107;53.356;-1.524;2023-04-03T07:29:41;6;6;
60245;PMS5003;46107;53.356;-1.524;2023-04-03T07:32:09;5;5;
60245;PMS5003;46107;53.356;-1.524;2023-04-03T07:34:37;6;6;
60245;PMS5003;46107;53.356;-1.524;2023-04-03T07:37:05;6;6;
60245;PMS5003;46107;53.356;-1.524;2023-04-03T07:39:33;8;6;
60245;PMS5003;46107;53.356;-1.524;2023-04-03T07:42:00;8;6;
60245;PMS5003;46107;53.356;-1.524;2023-04-03T07:44:28;7;5;
60245;PMS5003;46107;53.356;-1.524;2023-04-03T07:46:56;6;6;
60245;PMS5003;46107;53.356;-1.524;2023-04-03T07:49:23;5;5;
60245;PMS5003;46107;53.356;-1.524;2023-04-03T07:51:51;8;6;
60245;PMS5003;46107;53.356;-1.524;2023-04-03T07:54:23;7;6;
60245;PMS5003;46107;53.356;-1.524;2023-04-03T07:56:51;6;6;
60245;PMS5003;46107;53.356;-1.524;2023-04-03T07:59:19;7;7;
60245;PMS5003;46107;53.356;-1.524;2023-04-03T08:01:46;4;4;
60245;PMS5003;46107;53.356;-1.524;2023-04-03T08:04:14;6;6;
60245;PMS5003;46107;53.356;-1.524;2023-04-03T08:06:41;4;4;
60245;PMS5003;46107;53.356;-1.524;2023-04-03T08:09:08;5;5;
60245;PMS5003;46107;53.356;-1.524;2023-04-03T08:11:38;5;5;
60245;PMS5003;46107;53.356;-1.524;2023-04-03T08:14:06;7;4;
60245;PMS5003;46107;53.356;-1.524;2023-04-03T08:16:33;6;6;
60245;PMS5003;46107;53.356;-1.524;2023-04-03T08:19:01;7;7;
60245;PMS5003;46107;53.356;-1.524;2023-04-03T08:21:28;10;7;
60245;PMS5003;46107;53.356;-1.524;2023-04-03T08:23:56;6;6;
60245;PMS5003;46107;53.356;-1.524;2023-04-03T08:26:23;8;6;
60245;PMS5003;46107;53.356;-1.524;2023-04-03T08:28:51;3;3;
60245;PMS5003;46107;53.356;-1.524;2023-04-03T08:31:19;3;2;
60245;PMS5003;46107;53.356;-1.524;2023-04-03T08:33:47;3;3;
60245;PMS5003;46107;53.356;-1.524;2023-04-03T08:36:17;3;3;
60245;PMS5003;46107;53.356;-1.524;2023-04-03T08:38:46;6;4;
60245;PMS5003;46107;53.356;-1.524;2023-04-03T08:41:16;2;2;
60245;PMS5003;46107;53.356;-1.524;2023-04-03T08:43:56;3;1;
60245;PMS5003;46107;53.356;-1.524;2023-04-03T08:46:35;1;1;
60245;PMS5003;46107;53.356;-1.524;2023-04-03T08:49:11;2;2;
60245;PMS5003;46107;53.356;-1.524;2023-04-03T08:51:48;4;3;
60245;PMS5003;46107;53.356;-1.524;2023-04-03T08:54:20;4;2;
60245;PMS5003;46107;53.356;-1.524;2023-04-03T08:56:55;5;2;
60245;PMS5003;46107;53.356;-1.524;2023-04-03T08:59:26;4;3;
60245;PMS5003;46107;53.356;-1.524;2023-04-03T09:01:57;5;3;
60245;PMS5003;46107;53.356;-1.524;2023-04-03T09:04:27;4;2;
60245;PMS5003;46107;53.356;-1.524;2023-04-03T09:06:59;4;3;
60245;PMS5003;46107;53.356;-1.524;2023-04-03T09:09:35;2;2;
60245;PMS5003;46107;53.356;-1.524;2023-04-03T09:12:06;3;3;
60245;PMS5003;46107;53.356;-1.524;2023-04-03T09:14:42;4;3;
60245;PMS5003;46107;53.356;-1.524;2023-04-03T09:17:22;2;2;
60245;PMS5003;46107;53.356;-1.524;2023-04-03T09:19:59;4;2;
60245;PMS5003;46107;53.356;-1.524;2023-04-03T09:22:38;3;3;
60245;PMS5003;46107;53.356;-1.524;2023-04-03T09:25:12;2;2;
60245;PMS5003;46107;53.356;-1.524;2023-04-03T09:27:41;9;5;
60245;PMS5003;46107;53.356;-1.524;2023-04-03T09:30:12;5;5;
60245;PMS5003;46107;53.356;-1.524;2023-04-03T09:32:44;4;4;
60245;PMS5003;46107;53.356;-1.524;2023-04-03T09:35:17;5;5;
60245;PMS5003;46107;53.356;-1.524;2023-04-03T09:37:49;5;5;
60245;PMS5003;46107;53.356;-1.524;2023-04-03T09:40:36;5;4;
60245;PMS5003;46107;53.356;-1.524;2023-04-03T09:43:19;5;5;
60245;PMS5003;46107;53.356;-1.524;2023-04-03T09:45:50;7;5;
60245;PMS5003;46107;53.356;-1.524;2023-04-03T09:48:19;5;4;
60245;PMS5003;46107;53.356;-1.524;2023-04-03T09:50:56;3;3;
60245;PMS5003;46107;53.356;-1.524;2023-04-03T09:53:29;5;5;
60245;PMS5003;46107;53.356;-1.524;2023-04-03T09:55:59;4;4;
60245;PMS5003;46107;53.356;-1.524;2023-04-03T09:58:28;6;3;
60245;PMS5003;46107;53.356;-1.524;2023-04-03T10:00:58;6;4;
60245;PMS5003;46107;53.356;-1.524;2023-04-03T10:03:28;3;3;
60245;PMS5003;46107;53.356;-1.524;2023-04-03T10:05:57;3;3;
60245;PMS5003;46107;53.356;-1.524;2023-04-03T10:08:27;11;8;
60245;PMS5003;46107;53.356;-1.524;2023-04-03T10:11:12;5;5;
60245;PMS5003;46107;53.356;-1.524;2023-04-03T10:13:57;9;8;
60245;PMS5003;46107;53.356;-1.524;2023-04-03T10:16:28;6;6;
60245;PMS5003;46107;53.356;-1.524;2023-04-03T10:19:04;6;4;
60245;PMS5003;46107;53.356;-1.524;2023-04-03T10:21:49;5;5;
60245;PMS5003;46107;53.356;-1.524;2023-04-03T10:24:23;4;4;
60245;PMS5003;46107;53.356;-1.524;2023-04-03T10:26:59;5;4;
60245;PMS5003;46107;53.356;-1.524;2023-04-03T10:29:37;6;6;
60245;PMS5003;46107;53.356;-1.524;2023-04-03T10:32:13;5;5;
60245;PMS5003;46107;53.356;-1.524;2023-04-03T10:34:53;6;5;
60245;PMS5003;46107;53.356;-1.524;2023-04-03T10:37:26;7;6;
60245;PMS5003;46107;53.356;-1.524;2023-04-03T10:39:57;6;6;
60245;PMS5003;46107;53.356;-1.524;2023-04-03T10:42:29;6;4;
60245;PMS5003;46107;53.356;-1.524;2023-04-03T10:45:10;6;6;
60245;PMS5003;46107;53.356;-1.524;2023-04-03T10:47:54;9;6;
60245;PMS5003;46107;53.356;-1.524;2023-04-03T10:50:31;8;8;
60245;PMS5003;46107;53.356;-1.524;2023-04-03T10:53:08;7;7;
60245;PMS5003;46107;53.356;-1.524;2023-04-03T10:55:47;10;8;
60245;PMS5003;46107;53.356;-1.524;2023-04-03T10:58:21;8;7;
60245;PMS5003;46107;53.356;-1.524;2023-04-03T11:00:56;6;6;
60245;PMS5003;46107;53.356;-1.524;2023-04-03T11:03:30;6;6;
60245;PMS5003;46107;53.356;-1.524;2023-04-03T11:06:02;5;5;
60245;PMS5003;46107;53.356;-1.524;2023-04-03T11:08:35;6;6;
60245;PMS5003;46107;53.356;-1.524;2023-04-03T11:11:11;9;6;
60245;PMS5003;46107;53.356;-1.524;2023-04-03T11:13:45;5;5;
60245;PMS5003;46107;53.356;-1.524;2023-04-03T11:16:19;7;7;
60245;PMS5003;46107;53.356;-1.524;2023-04-03T11:18:52;6;6;
60245;PMS5003;46107;53.356;-1.524;2023-04-03T11:21:24;5;4;
60245;PMS5003;46107;53.356;-1.524;2023-04-03T11:23:55;6;6;
60245;PMS5003;46107;53.356;-1.524;2023-04-03T11:26:26;7;7;
60245;PMS5003;46107;53.356;-1.524;2023-04-03T11:28:58;6;6;
60245;PMS5003;46107;53.356;-1.524;2023-04-03T11:31:33;9;7;
60245;PMS5003;46107;53.356;-1.524;2023-04-03T11:34:15;5;5;
60245;PMS5003;46107;53.356;-1.524;2023-04-03T11:36:52;5;5;
60245;PMS5003;46107;53.356;-1.524;2023-04-03T11:39:25;5;5;
60245;PMS5003;46107;53.356;-1.524;2023-04-03T11:41:55;4;4;
60245;PMS5003;46107;53.356;-1.524;2023-04-03T11:44:39;7;6;
60245;PMS5003;46107;53.356;-1.524;2023-04-03T11:47:07;7;7;
60245;PMS5003;46107;53.356;-1.524;2023-04-03T11:49:52;8;7;
60245;PMS5003;46107;53.356;-1.524;2023-04-03T11:54:36;10;7;
60245;PMS5003;46107;53.356;-1.524;2023-04-03T11:58:35;8;6;
60245;PMS5003;46107;53.356;-1.524;2023-04-03T12:01:05;6;6;
60245;PMS5003;46107;53.356;-1.524;2023-04-03T12:04:12;7;7;
60245;PMS5003;46107;53.356;-1.524;2023-04-03T12:06:42;7;7;
60245;PMS5003;46107;53.356;-1.524;2023-04-03T12:07:23;7;7;
60245;PMS5003;46107;53.356;-1.524;2023-04-03T12:10:00;8;7;
60245;PMS5003;46107;53.356;-1.524;2023-04-03T12:12:40;8;6;
60245;PMS5003;46107;53.356;-1.524;2023-04-03T12:15:25;9;9;
60245;PMS5003;46107;53.356;-1.524;2023-04-03T12:20:57;9;9;
60245;PMS5003;46107;53.356;-1.524;2023-04-03T12:23:27;9;8;
60245;PMS5003;46107;53.356;-1.524;2023-04-03T12:26:05;8;7;
60245;PMS5003;46107;53.356;-1.524;2023-04-03T12:28:47;8;8;
60245;PMS5003;46107;53.356;-1.524;2023-04-03T12:31:16;8;8;
60245;PMS5003;46107;53.356;-1.524;2023-04-03T12:33:52;10;9;
60245;PMS5003;46107;53.356;-1.524;2023-04-03T12:36:33;11;8;
60245;PMS5003;46107;53.356;-1.524;2023-04-03T12:39:19;11;9;
60245;PMS5003;46107;53.356;-1.524;2023-04-03T12:42:03;9;9;
60245;PMS5003;46107;53.356;-1.524;2023-04-03T12:44:41;8;8;
60245;PMS5003;46107;53.356;-1.524;2023-04-03T12:47:19;10;10;
60245;PMS5003;46107;53.356;-1.524;2023-04-03T12:49:52;6;6;
60245;PMS5003;46107;53.356;-1.524;2023-04-03T12:52:24;13;10;
60245;PMS5003;46107;53.356;-1.524;2023-04-03T12:55:01;9;9;
60245;PMS5003;46107;53.356;-1.524;2023-04-03T12:57:29;8;8;
60245;PMS5003;46107;53.356;-1.524;2023-04-03T12:59:57;7;7;
60245;PMS5003;46107;53.356;-1.524;2023-04-03T13:02:26;10;8;
60245;PMS5003;46107;53.356;-1.524;2023-04-03T13:04:55;9;8;
60245;PMS5003;46107;53.356;-1.524;2023-04-03T13:07:26;14;11;
60245;PMS5003;46107;53.356;-1.524;2023-04-03T13:09:57;10;9;
60245;PMS5003;46107;53.356;-1.524;2023-04-03T13:12:27;7;7;
60245;PMS5003;46107;53.356;-1.524;2023-04-03T13:14:56;9;9;
60245;PMS5003;46107;53.356;-1.524;2023-04-03T13:17:26;10;10;
60245;PMS5003;46107;53.356;-1.524;2023-04-03T13:19:54;12;11;
60245;PMS5003;46107;53.356;-1.524;2023-04-03T13:22:36;8;8;
60245;PMS5003;46107;53.356;-1.524;2023-04-03T13:25:07;12;11;
60245;PMS5003;46107;53.356;-1.524;2023-04-03T13:27:38;10;8;
60245;PMS5003;46107;53.356;-1.524;2023-04-03T13:30:17;10;8;
60245;PMS5003;46107;53.356;-1.524;2023-04-03T13:32:49;10;9;
60245;PMS5003;46107;53.356;-1.524;2023-04-03T13:35:27;7;7;
60245;PMS5003;46107;53.356;-1.524;2023-04-03T13:38:02;11;9;
60245;PMS5003;46107;53.356;-1.524;2023-04-03T13:40:33;8;8;
60245;PMS5003;46107;53.356;-1.524;2023-04-03T13:43:17;12;12;
60245;PMS5003;46107;53.356;-1.524;2023-04-03T13:45:55;10;9;
60245;PMS5003;46107;53.356;-1.524;2023-04-03T13:48:25;11;10;
60245;PMS5003;46107;53.356;-1.524;2023-04-03T13:50:55;9;9;
60245;PMS5003;46107;53.356;-1.524;2023-04-03T13:53:25;8;8;
60245;PMS5003;46107;53.356;-1.524;2023-04-03T13:55:56;10;8;
60245;PMS5003;46107;53.356;-1.524;2023-04-03T13:58:31;8;8;
60245;PMS5003;46107;53.356;-1.524;2023-04-03T14:01:07;12;11;
60245;PMS5003;46107;53.356;-1.524;2023-04-03T14:03:41;6;6;
60245;PMS5003;46107;53.356;-1.524;2023-04-03T14:06:12;11;9;
60245;PMS5003;46107;53.356;-1.524;2023-04-03T14:08:43;12;10;
60245;PMS5003;46107;53.356;-1.524;2023-04-03T14:11:12;10;10;
60245;PMS5003;46107;53.356;-1.524;2023-04-03T14:13:42;9;9;
60245;PMS5003;46107;53.356;-1.524;2023-04-03T14:16:12;9;9;
60245;PMS5003;46107;53.356;-1.524;2023-04-03T14:18:41;12;12;
60245;PMS5003;46107;53.356;-1.524;2023-04-03T14:21:10;12;12;
60245;PMS5003;46107;53.356;-1.524;2023-04-03T14:23:38;15;14;
60245;PMS5003;46107;53.356;-1.524;2023-04-03T14:26:08;13;13;
60245;PMS5003;46107;53.356;-1.524;2023-04-03T14:28:38;10;6;
60245;PMS5003;46107;53.356;-1.524;2023-04-03T14:31:06;8;8;
60245;PMS5003;46107;53.356;-1.524;2023-04-03T14:33:36;9;8;
60245;PMS5003;46107;53.356;-1.524;2023-04-03T14:36:09;9;8;
60245;PMS5003;46107;53.356;-1.524;2023-04-03T14:38:39;8;8;
60245;PMS5003;46107;53.356;-1.524;2023-04-03T14:41:07;12;8;
60245;PMS5003;46107;53.356;-1.524;2023-04-03T14:43:36;8;8;
60245;PMS5003;46107;53.356;-1.524;2023-04-03T14:46:04;6;6;
60245;PMS5003;46107;53.356;-1.524;2023-04-03T14:48:37;9;7;
60245;PMS5003;46107;53.356;-1.524;2023-04-03T14:51:04;7;7;
60245;PMS5003;46107;53.356;-1.524;2023-04-03T14:53:32;9;8;
60245;PMS5003;46107;53.356;-1.524;2023-04-03T14:56:00;6;6;
60245;PMS5003;46107;53.356;-1.524;2023-04-03T14:58:27;8;7;
60245;PMS5003;46107;53.356;-1.524;2023-04-03T15:00:56;9;7;
60245;PMS5003;46107;53.356;-1.524;2023-04-03T15:03:24;5;5;
60245;PMS5003;46107;53.356;-1.524;2023-04-03T15:05:52;9;8;
60245;PMS5003;46107;53.356;-1.524;2023-04-03T15:08:20;6;6;
60245;PMS5003;46107;53.356;-1.524;2023-04-03T15:10:51;9;8;
60245;PMS5003;46107;53.356;-1.524;2023-04-03T15:13:19;9;9;
60245;PMS5003;46107;53.356;-1.524;2023-04-03T15:15:48;11;8;
60245;PMS5003;46107;53.356;-1.524;2023-04-03T15:18:17;8;8;
60245;PMS5003;46107;53.356;-1.524;2023-04-03T15:20:46;10;8;
60245;PMS5003;46107;53.356;-1.524;2023-04-03T15:23:15;6;5;
60245;PMS5003;46107;53.356;-1.524;2023-04-03T15:25:43;11;9;
60245;PMS5003;46107;53.356;-1.524;2023-04-03T15:28:15;10;7;
60245;PMS5003;46107;53.356;-1.524;2023-04-03T15:30:48;7;7;
60245;PMS5003;46107;53.356;-1.524;2023-04-03T15:33:16;8;8;
60245;PMS5003;46107;53.356;-1.524;2023-04-03T15:35:43;9;9;
60245;PMS5003;46107;53.356;-1.524;2023-04-03T15:38:11;7;7;
60245;PMS5003;46107;53.356;-1.524;2023-04-03T15:40:39;6;6;
60245;PMS5003;46107;53.356;-1.524;2023-04-03T15:43:08;8;8;
60245;PMS5003;46107;53.356;-1.524;2023-04-03T15:45:36;7;7;
60245;PMS5003;46107;53.356;-1.524;2023-04-03T15:48:04;12;9;
60245;PMS5003;46107;53.356;-1.524;2023-04-03T15:50:33;9;8;
60245;PMS5003;46107;53.356;-1.524;2023-04-03T15:53:02;7;7;
60245;PMS5003;46107;53.356;-1.524;2023-04-03T15:55:31;9;9;
60245;PMS5003;46107;53.356;-1.524;2023-04-03T15:58:00;8;7;
60245;PMS5003;46107;53.356;-1.524;2023-04-03T16:00:28;10;9;
60245;PMS5003;46107;53.356;-1.524;2023-04-03T16:02:57;10;10;
60245;PMS5003;46107;53.356;-1.524;2023-04-03T16:05:27;10;10;
60245;PMS5003;46107;53.356;-1.524;2023-04-03T16:07:55;13;12;
60245;PMS5003;46107;53.356;-1.524;2023-04-03T16:10:26;14;12;
60245;PMS5003;46107;53.356;-1.524;2023-04-03T16:12:54;10;9;
60245;PMS5003;46107;53.356;-1.524;2023-04-03T16:15:21;14;13;
60245;PMS5003;46107;53.356;-1.524;2023-04-03T16:17:50;12;11;
60245;PMS5003;46107;53.356;-1.524;2023-04-03T16:20:19;12;8;
60245;PMS5003;46107;53.356;-1.524;2023-04-03T16:22:47;10;9;
60245;PMS5003;46107;53.356;-1.524;2023-04-03T16:25:15;9;8;
60245;PMS5003;46107;53.356;-1.524;2023-04-03T16:27:43;13;9;
60245;PMS5003;46107;53.356;-1.524;2023-04-03T16:30:11;12;9;
60245;PMS5003;46107;53.356;-1.524;2023-04-03T16:32:39;10;9;
60245;PMS5003;46107;53.356;-1.524;2023-04-03T16:35:07;9;9;
60245;PMS5003;46107;53.356;-1.524;2023-04-03T16:37:36;12;11;
60245;PMS5003;46107;53.356;-1.524;2023-04-03T16:40:05;12;12;
60245;PMS5003;46107;53.356;-1.524;2023-04-03T16:42:34;14;12;
60245;PMS5003;46107;53.356;-1.524;2023-04-03T16:45:03;11;10;
60245;PMS5003;46107;53.356;-1.524;2023-04-03T16:47:31;10;10;
60245;PMS5003;46107;53.356;-1.524;2023-04-03T16:49:58;9;9;
60245;PMS5003;46107;53.356;-1.524;2023-04-03T16:52:26;11;10;
60245;PMS5003;46107;53.356;-1.524;2023-04-03T16:54:54;11;9;